createdAt,value
2023-04-21T00:01:50.871Z,20.20
2023-04-21T00:04:20.065Z,17.25
2023-04-21T00:06:47.583Z,17.90
2023-04-21T00:09:14.904Z,17.52
2023-04-21T00:11:42.230Z,17.20
2023-04-21T00:14:09.606Z,18.45
2023-04-21T00:16:36.988Z,15.98
2023-04-21T00:19:07.292Z,15.52
2023-04-21T00:21:35.472Z,19.35
2023-04-21T00:24:02.885Z,18.77
2023-04-21T00:26:30.298Z,17.33
2023-04-21T00:28:57.692Z,16.45
2023-04-21T00:31:25.067Z,18.23
2023-04-21T00:33:52.504Z,18.45
2023-04-21T00:36:19.870Z,18.27
2023-04-21T00:38:47.191Z,23.83
2023-04-21T00:41:14.514Z,17.02
2023-04-21T00:44:00.653Z,17.15
2023-04-21T00:46:28.295Z,18.95
2023-04-21T00:48:55.738Z,20.23
2023-04-21T00:51:23.111Z,19.65
2023-04-21T00:53:51.074Z,21.02
2023-04-21T00:56:19.208Z,22.27
2023-04-21T00:58:46.631Z,19.85
2023-04-21T01:01:14.660Z,21.50
2023-04-21T01:03:42.584Z,20.92
2023-04-21T01:06:10.272Z,18.38
2023-04-21T01:08:37.770Z,20.05
2023-04-21T01:11:14.708Z,21.88
2023-04-21T01:13:42.261Z,18.02
2023-04-21T01:16:09.684Z,21.95
2023-04-21T01:18:37.203Z,20.23
2023-04-21T01:21:04.940Z,18.52
2023-04-21T01:23:32.338Z,20.23
2023-04-21T01:25:59.707Z,19.98
2023-04-21T01:28:29.817Z,20.35
2023-04-21T01:30:57.150Z,21.40
2023-04-21T01:33:25.092Z,19.75
2023-04-21T01:35:52.417Z,22.33
2023-04-21T01:38:19.830Z,20.15
2023-04-21T01:40:49.716Z,21.83
2023-04-21T01:43:18.436Z,21.33
2023-04-21T01:45:46.184Z,22.25
2023-04-21T01:48:13.613Z,23.52
2023-04-21T01:50:41.177Z,20.08
2023-04-21T01:53:08.596Z,22.00
2023-04-21T01:55:36.171Z,21.33
2023-04-21T01:58:03.572Z,21.60
2023-04-21T02:00:30.987Z,23.35
2023-04-21T02:02:58.415Z,22.90
2023-04-21T02:05:25.914Z,23.48
2023-04-21T02:07:53.261Z,26.15
2023-04-21T02:10:20.762Z,19.77
2023-04-21T02:12:48.079Z,20.42
2023-04-21T02:15:15.469Z,22.33
2023-04-21T02:17:45.673Z,23.02
2023-04-21T02:20:16.010Z,19.65
2023-04-21T02:22:43.414Z,19.80
2023-04-21T02:25:10.927Z,21.08
2023-04-21T02:27:38.245Z,23.10
2023-04-21T02:30:05.834Z,21.35
2023-04-21T02:32:33.945Z,17.73
2023-04-21T02:35:01.376Z,20.95
2023-04-21T02:37:28.722Z,21.35
2023-04-21T02:39:56.034Z,19.95
2023-04-21T02:42:23.465Z,19.63
2023-04-21T02:44:50.866Z,18.63
2023-04-21T02:47:18.243Z,19.58
2023-04-21T02:49:45.912Z,23.33
2023-04-21T02:52:13.216Z,19.45
2023-04-21T02:54:40.549Z,20.77
2023-04-21T02:57:07.976Z,22.23
2023-04-21T02:59:35.357Z,24.13
2023-04-21T03:02:02.857Z,19.75
2023-04-21T03:04:30.347Z,22.10
2023-04-21T03:06:57.996Z,19.38
2023-04-21T03:09:25.559Z,25.63
2023-04-21T03:11:52.926Z,22.02
2023-04-21T03:14:20.392Z,21.23
2023-04-21T03:16:47.826Z,21.58
2023-04-21T03:19:15.203Z,18.98
2023-04-21T03:21:42.529Z,20.00
2023-04-21T03:24:09.864Z,18.00
2023-04-21T03:26:37.218Z,22.30
2023-04-21T03:29:04.620Z,22.73
2023-04-21T03:31:32.031Z,21.65
2023-04-21T03:33:59.404Z,20.35
2023-04-21T03:36:26.771Z,20.98
2023-04-21T03:38:54.090Z,22.63
2023-04-21T03:41:21.424Z,20.00
2023-04-21T03:43:52.013Z,18.75
2023-04-21T03:46:20.085Z,23.02
2023-04-21T03:48:47.865Z,20.35
2023-04-21T03:51:15.609Z,18.73
2023-04-21T03:53:43.021Z,19.15
2023-04-21T03:56:10.636Z,17.83
2023-04-21T03:58:38.091Z,19.55
2023-04-21T04:01:06.766Z,17.60
2023-04-21T04:03:34.636Z,14.30
2023-04-21T04:06:04.302Z,18.92
2023-04-21T04:08:31.698Z,16.80
2023-04-21T04:10:59.188Z,17.50
2023-04-21T04:13:27.771Z,17.63
2023-04-21T04:15:55.335Z,18.02
2023-04-21T04:18:22.707Z,15.32
2023-04-21T04:20:49.997Z,16.42
2023-04-21T04:23:17.361Z,15.27
2023-04-21T04:25:44.761Z,19.20
2023-04-21T04:28:12.852Z,18.02
2023-04-21T04:30:40.178Z,16.40
2023-04-21T04:33:07.563Z,20.95
2023-04-21T04:35:35.170Z,15.23
2023-04-21T04:38:02.485Z,18.48
2023-04-21T04:40:30.538Z,17.45
2023-04-21T04:42:58.308Z,15.20
2023-04-21T04:45:27.265Z,12.90
2023-04-21T04:47:54.652Z,13.00
2023-04-21T04:50:21.994Z,16.92
2023-04-21T04:52:49.956Z,13.43
2023-04-21T04:55:17.345Z,12.80
2023-04-21T04:57:44.686Z,14.93
2023-04-21T05:00:14.558Z,13.60
2023-04-21T05:02:42.270Z,16.42
2023-04-21T05:05:09.936Z,15.20
2023-04-21T05:07:37.508Z,12.20
2023-04-21T05:10:04.966Z,17.58
2023-04-21T05:12:32.525Z,13.10
2023-04-21T05:14:59.825Z,13.50
2023-04-21T05:17:28.845Z,14.85
2023-04-21T05:19:56.500Z,13.68
2023-04-21T05:22:23.835Z,16.08
2023-04-21T05:24:51.145Z,11.73
2023-04-21T05:27:18.476Z,16.75
2023-04-21T05:29:45.892Z,10.48
2023-04-21T05:32:13.327Z,12.10
2023-04-21T05:34:40.676Z,13.52
2023-04-21T05:37:08.015Z,10.00
2023-04-21T05:39:35.384Z,12.40
2023-04-21T05:42:02.715Z,12.32
2023-04-21T05:44:30.019Z,11.57
2023-04-21T05:46:57.386Z,10.85
2023-04-21T05:49:24.701Z,12.25
2023-04-21T05:51:52.102Z,9.90
2023-04-21T05:54:19.821Z,10.27
2023-04-21T05:56:48.599Z,11.90
2023-04-21T05:59:16.394Z,10.88
2023-04-21T06:01:44.070Z,13.38
2023-04-21T06:04:11.557Z,11.40
2023-04-21T06:06:39.273Z,9.60
2023-04-21T06:09:08.097Z,13.98
2023-04-21T06:11:35.512Z,10.40
2023-04-21T06:14:02.860Z,8.50
2023-04-21T06:16:32.652Z,11.30
2023-04-21T06:19:00.758Z,9.48
2023-04-21T06:21:28.150Z,11.77
2023-04-21T06:23:55.518Z,12.30
2023-04-21T06:26:22.878Z,12.75
2023-04-21T06:28:50.258Z,12.75
2023-04-21T06:31:19.325Z,12.40
2023-04-21T06:33:46.876Z,11.27
2023-04-21T06:36:15.126Z,9.15
2023-04-21T06:38:43.529Z,11.35
2023-04-21T06:41:11.007Z,11.20
2023-04-21T06:43:38.420Z,12.50
2023-04-21T06:46:05.872Z,9.80
2023-04-21T06:48:33.199Z,11.13
2023-04-21T06:51:01.476Z,8.80
2023-04-21T06:53:28.869Z,10.00
2023-04-21T06:55:56.494Z,14.18
2023-04-21T06:58:23.893Z,11.10
2023-04-21T07:00:51.575Z,7.40
2023-04-21T07:03:19.059Z,9.55
2023-04-21T07:05:47.363Z,7.47
2023-04-21T07:08:14.908Z,7.93
2023-04-21T07:10:42.293Z,11.18
2023-04-21T07:13:10.220Z,8.25
2023-04-21T07:15:37.618Z,10.80
2023-04-21T07:18:05.025Z,11.05
2023-04-21T07:20:32.369Z,9.95
2023-04-21T07:22:59.694Z,8.68
2023-04-21T07:25:27.083Z,9.43
2023-04-21T07:27:54.378Z,11.18
2023-04-21T07:30:21.862Z,7.28
2023-04-21T07:32:49.271Z,5.28
2023-04-21T07:35:17.028Z,9.88
2023-04-21T07:37:44.726Z,9.23
2023-04-21T07:40:12.281Z,9.25
2023-04-21T07:42:39.787Z,8.57
2023-04-21T07:45:07.438Z,10.82
2023-04-21T07:47:35.082Z,7.53
2023-04-21T07:50:02.521Z,8.65
2023-04-21T07:52:29.841Z,8.27
2023-04-21T07:54:57.507Z,8.35
2023-04-21T07:57:25.423Z,7.95
2023-04-21T07:59:52.780Z,9.40
2023-04-21T08:02:20.284Z,7.43
2023-04-21T08:04:47.736Z,7.00
2023-04-21T08:07:16.008Z,6.68
2023-04-21T08:09:43.478Z,6.53
2023-04-21T08:12:10.807Z,7.97
2023-04-21T08:14:38.182Z,5.53
2023-04-21T08:17:05.581Z,7.88
2023-04-21T08:19:32.974Z,7.35
2023-04-21T08:22:00.355Z,11.18
2023-04-21T08:24:27.830Z,7.53
2023-04-21T08:26:55.468Z,10.82
2023-04-21T08:29:22.953Z,10.05
2023-04-21T08:31:50.397Z,7.35
2023-04-21T08:34:20.990Z,6.47
2023-04-21T08:36:49.138Z,7.20
2023-04-21T08:39:17.122Z,8.32
2023-04-21T08:41:44.515Z,8.98
2023-04-21T08:44:11.906Z,6.25
2023-04-21T08:46:39.877Z,8.55
2023-04-21T08:49:07.502Z,9.20
2023-04-21T08:51:35.126Z,9.43
2023-04-21T08:54:02.475Z,9.55
2023-04-21T08:56:29.845Z,7.60
2023-04-21T08:58:57.419Z,5.45
2023-04-21T09:01:24.819Z,7.20
2023-04-21T09:03:52.422Z,8.15
2023-04-21T09:06:20.500Z,7.45
2023-04-21T09:08:58.083Z,6.38
2023-04-21T09:11:25.936Z,6.20
2023-04-21T09:13:58.580Z,6.72
2023-04-21T09:16:25.973Z,10.98
2023-04-21T09:18:53.365Z,13.35
2023-04-21T09:21:21.219Z,10.18
2023-04-21T09:23:50.114Z,9.35
2023-04-21T09:26:18.487Z,8.68
2023-04-21T09:28:46.773Z,7.47
2023-04-21T09:31:20.106Z,8.38
2023-04-21T09:33:57.733Z,9.55
2023-04-21T09:36:28.213Z,6.20
2023-04-21T09:39:15.421Z,8.68
2023-04-21T09:41:44.706Z,6.97
2023-04-21T09:44:12.043Z,11.27
2023-04-21T09:46:39.620Z,11.00
2023-04-21T09:49:07.256Z,9.15
2023-04-21T09:54:28.550Z,8.88
2023-04-21T09:56:58.578Z,8.43
2023-04-21T09:59:47.565Z,10.23
2023-04-21T10:02:15.342Z,9.57
2023-04-21T10:04:43.565Z,7.28
2023-04-21T10:07:11.814Z,11.10
2023-04-21T10:09:58.375Z,8.30
2023-04-21T10:12:26.745Z,11.27
2023-04-21T10:14:54.942Z,8.38
2023-04-21T10:17:26.933Z,8.55
2023-04-21T10:19:57.993Z,9.93
2023-04-21T10:22:29.277Z,6.22
2023-04-21T10:24:57.387Z,6.43
2023-04-21T10:27:44.967Z,9.15
2023-04-21T10:30:19.361Z,7.22
2023-04-21T10:32:46.808Z,9.80
2023-04-21T10:35:15.107Z,6.25
2023-04-21T10:37:42.798Z,16.67
2023-04-21T10:40:42.579Z,6.88
2023-04-21T10:43:30.801Z,7.50
2023-04-21T10:45:58.166Z,5.68
2023-04-21T10:48:27.207Z,5.35
2023-04-21T10:50:54.551Z,4.65
2023-04-21T10:53:26.408Z,6.60
2023-04-21T10:55:54.324Z,4.47
2023-04-21T10:58:22.699Z,4.05
2023-04-21T11:00:55.491Z,7.55
2023-04-21T11:03:23.043Z,5.95
2023-04-21T11:05:50.772Z,4.43
2023-04-21T11:08:18.154Z,3.88
2023-04-21T11:10:46.524Z,4.93
2023-04-21T11:13:13.971Z,5.53
2023-04-21T11:15:41.704Z,4.13
2023-04-21T11:18:09.998Z,8.50
2023-04-21T11:20:42.503Z,6.85
2023-04-21T11:23:09.820Z,3.72
2023-04-21T11:25:37.167Z,4.32
2023-04-21T11:28:05.108Z,6.72
2023-04-21T11:30:36.432Z,4.25
2023-04-21T11:33:04.045Z,7.03
2023-04-21T11:35:32.405Z,3.50
2023-04-21T11:37:59.729Z,5.65
2023-04-21T11:40:27.143Z,5.15
2023-04-21T11:42:55.379Z,7.30
2023-04-21T11:45:22.989Z,4.65
2023-04-21T11:47:50.499Z,5.13
2023-04-21T11:50:31.886Z,5.55
2023-04-21T11:52:59.270Z,4.38
2023-04-21T11:55:26.664Z,6.03
2023-04-21T11:57:54.001Z,7.20
2023-04-21T12:00:22.199Z,6.07
2023-04-21T12:02:58.761Z,5.75
2023-04-21T12:05:26.554Z,3.45
2023-04-21T12:07:56.884Z,5.38
2023-04-21T12:10:24.407Z,7.45
2023-04-21T12:12:51.961Z,4.15
2023-04-21T12:15:20.558Z,4.72
2023-04-21T12:17:55.045Z,4.55
2023-04-21T12:20:25.657Z,4.15
2023-04-21T12:22:53.623Z,5.25
2023-04-21T12:25:21.013Z,5.97
2023-04-21T12:27:49.309Z,6.32
2023-04-21T12:30:17.276Z,3.67
2023-04-21T12:32:44.824Z,5.60
2023-04-21T12:35:12.234Z,6.18
2023-04-21T12:37:39.650Z,6.38
2023-04-21T12:40:08.257Z,4.18
2023-04-21T12:42:37.723Z,4.35
2023-04-21T12:45:06.131Z,10.30
2023-04-21T12:47:33.516Z,4.68
2023-04-21T12:50:01.160Z,4.57
2023-04-21T12:52:28.669Z,4.57
2023-04-21T12:54:56.208Z,5.35
2023-04-21T12:57:23.634Z,7.38
2023-04-21T12:59:51.039Z,5.88
2023-04-21T13:02:18.543Z,5.75
2023-04-21T13:04:46.155Z,5.30
2023-04-21T13:07:14.158Z,7.82
2023-04-21T13:09:41.500Z,5.68
2023-04-21T13:12:08.944Z,6.82
2023-04-21T13:14:36.288Z,6.35
2023-04-21T13:17:03.774Z,10.13
2023-04-21T13:19:31.534Z,6.45
2023-04-21T13:21:59.134Z,4.55
2023-04-21T13:24:27.037Z,4.25
2023-04-21T13:26:54.830Z,4.20
2023-04-21T13:29:22.202Z,5.35
2023-04-21T13:31:49.547Z,5.28
2023-04-21T13:34:16.924Z,5.88
2023-04-21T13:36:44.268Z,4.05
2023-04-21T13:39:12.246Z,7.07
2023-04-21T13:41:39.726Z,4.57
2023-04-21T13:44:07.248Z,5.00
2023-04-21T13:46:34.758Z,6.15
2023-04-21T13:49:02.480Z,4.97
2023-04-21T13:51:30.488Z,6.15
2023-04-21T13:53:57.954Z,4.18
2023-04-21T13:56:25.685Z,5.05
2023-04-21T13:58:53.017Z,4.30
2023-04-21T14:01:21.791Z,6.60
2023-04-21T14:03:49.876Z,7.13
2023-04-21T14:06:17.561Z,6.97
2023-04-21T14:08:44.900Z,4.90
2023-04-21T14:11:12.386Z,4.43
2023-04-21T14:13:51.992Z,8.15
2023-04-21T14:16:27.088Z,5.40
2023-04-21T14:18:54.528Z,5.95
2023-04-21T14:21:21.886Z,5.15
2023-04-21T14:23:49.302Z,5.63
2023-04-21T14:26:16.739Z,5.07
2023-04-21T14:28:44.782Z,5.47
2023-04-21T14:31:12.129Z,5.28
2023-04-21T14:33:39.714Z,4.65
2023-04-21T14:36:07.309Z,5.85
2023-04-21T14:38:35.886Z,6.18
2023-04-21T14:41:03.438Z,4.57
2023-04-21T14:43:30.833Z,5.68
2023-04-21T14:45:58.181Z,5.32
2023-04-21T14:48:25.616Z,5.13
2023-04-21T14:50:53.065Z,4.25
2023-04-21T14:53:21.260Z,5.03
2023-04-21T14:55:48.687Z,4.28
2023-04-21T14:58:16.178Z,4.47
2023-04-21T15:00:43.658Z,8.63
2023-04-21T15:03:11.692Z,7.22
2023-04-21T15:05:39.293Z,10.27
2023-04-21T15:08:06.881Z,2.78
2023-04-21T15:10:34.266Z,5.00
2023-04-21T15:13:01.732Z,4.70
2023-04-21T15:15:29.049Z,3.85
2023-04-21T15:17:56.527Z,6.45
2023-04-21T15:20:36.493Z,3.83
2023-04-21T15:23:11.133Z,3.95
2023-04-21T15:25:39.926Z,7.65
2023-04-21T15:28:07.710Z,5.43
2023-04-21T15:30:35.122Z,8.00
2023-04-21T15:33:03.282Z,6.70
2023-04-21T15:35:30.631Z,4.28
2023-04-21T15:37:58.038Z,4.95
2023-04-21T15:40:25.461Z,5.93
2023-04-21T15:42:52.810Z,5.40
2023-04-21T15:45:20.233Z,8.45
2023-04-21T15:47:47.616Z,4.50
2023-04-21T15:50:15.047Z,5.00
2023-04-21T15:52:43.628Z,6.72
2023-04-21T15:55:14.138Z,7.47
2023-04-21T15:57:41.521Z,6.50
2023-04-21T16:00:10.659Z,3.22
2023-04-21T16:02:38.489Z,4.63
2023-04-21T16:05:06.307Z,5.28
2023-04-21T16:07:33.872Z,6.25
2023-04-21T16:10:01.207Z,4.85
2023-04-21T16:12:28.544Z,6.60
2023-04-21T16:15:01.587Z,4.25
2023-04-21T16:17:34.193Z,5.43
2023-04-21T16:20:01.618Z,3.90
2023-04-21T16:22:29.001Z,3.22
2023-04-21T16:24:58.855Z,6.10
2023-04-21T16:27:26.290Z,5.55
2023-04-21T16:29:53.700Z,3.15
2023-04-21T16:32:21.189Z,6.50
2023-04-21T16:34:48.632Z,6.22
2023-04-21T16:37:16.156Z,3.63
2023-04-21T16:39:43.591Z,7.45
2023-04-21T16:42:11.003Z,8.02
2023-04-21T16:44:38.631Z,3.88
2023-04-21T16:47:07.213Z,5.88
2023-04-21T16:49:34.797Z,5.78
2023-04-21T16:52:02.157Z,7.40
2023-04-21T16:54:29.513Z,6.18
2023-04-21T16:56:57.783Z,5.85
2023-04-21T16:59:25.196Z,3.78
2023-04-21T17:01:52.587Z,4.05
2023-04-21T17:04:20.067Z,5.68
2023-04-21T17:06:48.462Z,3.78
2023-04-21T17:09:15.900Z,3.63
2023-04-21T17:11:44.020Z,3.45
2023-04-21T17:14:11.322Z,5.75
2023-04-21T17:16:38.738Z,6.85
2023-04-21T17:19:06.183Z,4.38
2023-04-21T17:21:33.634Z,3.30
2023-04-21T17:24:01.024Z,4.15
2023-04-21T17:26:28.384Z,6.72
2023-04-21T17:28:55.842Z,10.55
2023-04-21T17:31:23.257Z,5.32
2023-04-21T17:33:52.782Z,6.15
2023-04-21T17:36:20.252Z,5.88
2023-04-21T17:38:47.775Z,3.28
2023-04-21T17:41:15.078Z,3.08
2023-04-21T17:43:42.414Z,4.45
2023-04-21T17:46:09.861Z,3.53
2023-04-21T17:48:37.644Z,4.70
2023-04-21T17:51:05.295Z,3.05
2023-04-21T17:53:32.884Z,5.32
2023-04-21T17:56:00.409Z,4.10
2023-04-21T17:58:27.987Z,5.78
2023-04-21T18:00:55.679Z,3.80
2023-04-21T18:03:23.219Z,3.63
2023-04-21T18:05:50.955Z,5.03
2023-04-21T18:08:18.661Z,4.60
2023-04-21T18:10:46.032Z,4.18
2023-04-21T18:13:13.684Z,4.13
2023-04-21T18:15:41.158Z,4.47
2023-04-21T18:18:08.922Z,4.97
2023-04-21T18:20:36.791Z,4.97
2023-04-21T18:23:04.320Z,3.92
2023-04-21T18:25:42.095Z,6.90
2023-04-21T18:28:11.643Z,5.18
2023-04-21T18:30:39.745Z,3.58
2023-04-21T18:33:07.330Z,4.07
2023-04-21T18:35:34.792Z,3.80
2023-04-21T18:38:02.214Z,4.38
2023-04-21T18:40:29.777Z,6.50
2023-04-21T18:42:57.424Z,5.53
2023-04-21T18:45:24.784Z,7.47
2023-04-21T18:47:52.166Z,4.18
2023-04-21T18:50:19.651Z,8.00
2023-04-21T18:52:47.043Z,3.05
2023-04-21T18:55:15.528Z,9.32
2023-04-21T18:57:42.863Z,6.22
2023-04-21T19:00:10.442Z,6.50
2023-04-21T19:02:38.339Z,5.70
2023-04-21T19:05:06.464Z,8.57
2023-04-21T19:07:34.986Z,8.55
2023-04-21T19:10:02.348Z,4.15
2023-04-21T19:12:29.809Z,6.20
2023-04-21T19:14:57.184Z,4.22
2023-04-21T19:17:24.594Z,8.60
2023-04-21T19:19:52.077Z,5.00
2023-04-21T19:22:20.296Z,5.57
2023-04-21T19:24:47.845Z,4.43
2023-04-21T19:27:15.266Z,8.00
2023-04-21T19:29:42.735Z,4.63
2023-04-21T19:32:10.174Z,5.78
2023-04-21T19:34:37.942Z,4.15
2023-04-21T19:37:05.686Z,5.75
2023-04-21T19:39:33.412Z,6.03
2023-04-21T19:42:01.200Z,5.88
2023-04-21T19:44:28.526Z,5.22
2023-04-21T19:46:56.335Z,7.38
2023-04-21T19:49:23.924Z,3.65
2023-04-21T19:51:51.858Z,5.82
2023-04-21T19:54:19.277Z,5.95
2023-04-21T19:56:46.617Z,6.53
2023-04-21T19:59:13.972Z,4.65
2023-04-21T20:01:41.323Z,7.10
2023-04-21T20:04:11.162Z,5.97
2023-04-21T20:06:40.179Z,5.60
2023-04-21T20:09:07.573Z,4.53
2023-04-21T20:11:35.000Z,7.70
2023-04-21T20:14:02.469Z,7.65
2023-04-21T20:16:29.933Z,4.22
2023-04-21T20:18:57.371Z,5.82
2023-04-21T20:21:24.711Z,6.28
2023-04-21T20:23:52.456Z,4.85
2023-04-21T20:26:19.797Z,7.40
2023-04-21T20:28:47.164Z,5.75
2023-04-21T20:31:14.841Z,7.68
2023-04-21T20:33:42.256Z,6.50
2023-04-21T20:36:09.656Z,6.68
2023-04-21T20:38:38.534Z,5.07
2023-04-21T20:41:05.917Z,4.95
2023-04-21T20:43:33.671Z,4.45
2023-04-21T20:46:01.861Z,8.35
2023-04-21T20:48:29.224Z,5.40
2023-04-21T20:50:56.890Z,8.30
2023-04-21T20:53:24.332Z,5.45
2023-04-21T20:55:51.771Z,5.35
2023-04-21T20:58:19.121Z,8.30
2023-04-21T21:00:46.578Z,5.75
2023-04-21T21:03:14.169Z,5.90
2023-04-21T21:05:41.821Z,6.10
2023-04-21T21:08:09.609Z,5.85
2023-04-21T21:10:37.162Z,4.88
2023-04-21T21:13:04.520Z,7.25
2023-04-21T21:15:31.858Z,7.68
2023-04-21T21:17:59.447Z,5.85
2023-04-21T21:20:26.881Z,5.95
2023-04-21T21:22:54.314Z,7.30
2023-04-21T21:25:21.799Z,6.47
2023-04-21T21:27:49.280Z,6.85
2023-04-21T21:30:16.644Z,7.22
2023-04-21T21:32:44.060Z,8.40
2023-04-21T21:35:12.168Z,8.02
2023-04-21T21:37:39.730Z,8.50
2023-04-21T21:40:07.939Z,8.18
2023-04-21T21:42:35.551Z,7.30
2023-04-21T21:45:02.871Z,7.38
2023-04-21T21:47:30.304Z,7.13
2023-04-21T21:49:59.111Z,6.63
2023-04-21T21:52:28.726Z,7.93
2023-04-21T21:54:57.179Z,12.55
2023-04-21T21:57:24.614Z,8.45
2023-04-21T21:59:51.986Z,6.43
2023-04-21T22:02:19.424Z,9.27
2023-04-21T22:04:47.196Z,8.63
2023-04-21T22:07:14.575Z,8.50
2023-04-21T22:09:41.945Z,6.30
2023-04-21T22:12:09.592Z,6.80
2023-04-21T22:14:36.990Z,6.97
2023-04-21T22:17:04.580Z,6.85
2023-04-21T22:19:32.046Z,6.00
2023-04-21T22:21:59.546Z,9.05
2023-04-21T22:24:26.919Z,7.80
2023-04-21T22:26:54.241Z,12.70
2023-04-21T22:29:21.783Z,6.75
2023-04-21T22:31:49.262Z,9.40
2023-04-21T22:34:17.949Z,6.97
2023-04-21T22:36:45.498Z,6.03
2023-04-21T22:39:12.902Z,7.93
2023-04-21T22:41:40.282Z,8.30
2023-04-21T22:44:07.609Z,7.05
2023-04-21T22:46:35.007Z,10.25
2023-04-21T22:49:03.430Z,6.18
2023-04-21T22:51:32.679Z,7.90
2023-04-21T22:54:00.712Z,7.00
2023-04-21T22:56:28.641Z,8.60
2023-04-21T22:58:56.032Z,7.28
2023-04-21T23:01:23.469Z,8.13
2023-04-21T23:03:51.022Z,8.60
2023-04-21T23:06:18.568Z,7.57
2023-04-21T23:08:47.664Z,6.85
2023-04-21T23:11:15.154Z,6.47
2023-04-21T23:13:42.568Z,9.82
2023-04-21T23:16:09.868Z,8.55
2023-04-21T23:18:37.240Z,6.35
2023-04-21T23:21:04.650Z,6.07
2023-04-21T23:23:32.189Z,8.75
2023-04-21T23:25:59.538Z,9.80
2023-04-21T23:28:26.937Z,7.82
2023-04-21T23:30:54.475Z,7.05
2023-04-21T23:33:21.839Z,7.18
2023-04-21T23:35:49.212Z,10.82
2023-04-21T23:38:16.615Z,7.50
2023-04-21T23:40:43.907Z,5.60
2023-04-21T23:43:11.614Z,6.03
2023-04-21T23:45:38.995Z,9.60
2023-04-21T23:48:06.420Z,5.78
2023-04-21T23:50:33.882Z,7.25
2023-04-21T23:53:01.393Z,7.03
2023-04-21T23:55:28.811Z,6.45
2023-04-21T23:57:56.148Z,7.57
